createdAt,value
2022-10-17T00:00:44.956Z,11.95
2022-10-17T00:03:12.275Z,10.82
2022-10-17T00:05:45.320Z,12.32
2022-10-17T00:08:14.297Z,13.30
2022-10-17T00:10:42.165Z,12.88
2022-10-17T00:13:09.673Z,21.73
2022-10-17T00:15:36.968Z,13.00
2022-10-17T00:18:04.500Z,15.45
2022-10-17T00:20:33.035Z,16.25
2022-10-17T00:23:00.883Z,12.45
2022-10-17T00:25:28.137Z,15.25
2022-10-17T00:27:55.221Z,13.13
2022-10-17T00:30:22.438Z,10.98
2022-10-17T00:32:49.445Z,15.60
2022-10-17T00:35:16.564Z,9.07
2022-10-17T00:37:43.629Z,12.13
2022-10-17T00:40:11.482Z,12.35
2022-10-17T00:42:39.073Z,10.90
2022-10-17T00:45:23.682Z,16.17
2022-10-17T00:48:04.985Z,12.50
2022-10-17T00:50:33.274Z,11.38
2022-10-17T00:53:03.016Z,9.68
2022-10-17T00:55:35.204Z,18.45
2022-10-17T00:58:04.862Z,9.32
2022-10-17T01:00:32.457Z,15.07
2022-10-17T01:02:59.640Z,12.05
2022-10-17T01:05:26.864Z,10.35
2022-10-17T01:07:54.757Z,12.98
2022-10-17T01:13:08.666Z,12.75
2022-10-17T01:15:41.228Z,10.52
2022-10-17T01:18:20.078Z,5.28
2022-10-17T01:20:56.152Z,12.13
2022-10-17T01:24:01.509Z,11.07
2022-10-17T01:26:37.383Z,10.88
2022-10-17T01:29:52.976Z,15.10
2022-10-17T01:32:29.611Z,17.02
2022-10-17T01:35:02.990Z,9.27
2022-10-17T01:37:38.603Z,16.10
2022-10-17T01:40:28.628Z,9.00
2022-10-17T01:43:07.091Z,14.20
2022-10-17T01:45:41.712Z,14.73
2022-10-17T01:48:15.066Z,11.32
2022-10-17T01:50:47.586Z,18.50
2022-10-17T01:53:20.622Z,11.98
2022-10-17T01:55:50.529Z,8.73
2022-10-17T01:58:33.294Z,8.38
2022-10-17T02:01:04.833Z,13.73
2022-10-17T02:06:00.594Z,10.63
2022-10-17T02:08:30.646Z,9.57
2022-10-17T02:11:04.097Z,13.35
2022-10-17T02:13:50.010Z,14.88
2022-10-17T02:16:42.440Z,10.18
2022-10-17T02:19:29.112Z,15.88
2022-10-17T02:22:18.498Z,9.77
2022-10-17T02:25:05.185Z,12.68
2022-10-17T02:27:56.539Z,10.95
2022-10-17T02:30:47.756Z,8.60
2022-10-17T02:33:24.019Z,13.63
2022-10-17T02:35:55.513Z,11.52
2022-10-17T02:40:54.081Z,14.40
2022-10-17T02:43:22.833Z,7.32
2022-10-17T02:45:51.402Z,15.25
2022-10-17T02:48:39.562Z,11.35
2022-10-17T02:51:33.020Z,13.93
2022-10-17T02:54:00.591Z,7.28
2022-10-17T02:56:31.374Z,8.68
2022-10-17T02:59:00.365Z,10.75
2022-10-17T03:01:29.741Z,12.27
2022-10-17T03:04:12.166Z,12.15
2022-10-17T03:06:40.676Z,12.45
2022-10-17T03:09:08.728Z,13.68
2022-10-17T03:11:35.844Z,9.32
2022-10-17T03:14:02.984Z,9.98
2022-10-17T03:16:30.159Z,11.77
2022-10-17T03:18:57.183Z,11.25
2022-10-17T03:21:24.240Z,12.60
2022-10-17T03:23:51.305Z,12.40
2022-10-17T03:26:18.534Z,8.73
2022-10-17T03:28:46.866Z,9.85
2022-10-17T03:31:17.394Z,12.10
2022-10-17T03:33:44.561Z,11.00
2022-10-17T03:36:17.512Z,12.82
2022-10-17T03:38:45.303Z,15.40
2022-10-17T03:41:12.921Z,13.75
2022-10-17T03:43:40.514Z,11.27
2022-10-17T03:46:07.943Z,24.05
2022-10-17T03:48:35.369Z,9.55
2022-10-17T03:51:05.619Z,13.48
2022-10-17T03:53:33.247Z,17.25
2022-10-17T03:56:14.300Z,12.13
2022-10-17T03:58:42.307Z,14.15
2022-10-17T04:01:12.181Z,17.20
2022-10-17T04:03:40.989Z,15.45
2022-10-17T04:06:11.293Z,17.00
2022-10-17T04:08:38.824Z,12.18
2022-10-17T04:11:07.893Z,13.45
2022-10-17T04:13:35.249Z,20.08
2022-10-17T04:16:06.302Z,12.18
2022-10-17T04:18:34.069Z,16.10
2022-10-17T04:21:05.864Z,12.52
2022-10-17T04:23:33.803Z,9.48
2022-10-17T04:26:03.526Z,12.32
2022-10-17T04:28:32.345Z,10.55
2022-10-17T04:31:01.329Z,16.33
2022-10-17T04:33:28.676Z,12.82
2022-10-17T04:36:01.159Z,12.70
2022-10-17T04:38:29.601Z,16.80
2022-10-17T04:41:03.408Z,14.10
2022-10-17T04:43:36.946Z,15.40
2022-10-17T04:46:09.162Z,14.48
2022-10-17T04:48:36.391Z,12.27
2022-10-17T04:51:09.137Z,14.23
2022-10-17T04:53:37.753Z,12.45
2022-10-17T04:56:10.591Z,11.40
2022-10-17T04:58:38.765Z,12.77
2022-10-17T05:01:08.324Z,19.88
2022-10-17T05:03:36.534Z,15.82
2022-10-17T05:06:12.677Z,9.25
2022-10-17T05:08:40.315Z,11.10
2022-10-17T05:11:20.030Z,14.60
2022-10-17T05:13:58.281Z,12.20
2022-10-17T05:16:26.590Z,12.70
2022-10-17T05:18:56.868Z,13.15
2022-10-17T05:21:26.060Z,7.68
2022-10-17T05:23:53.306Z,15.88
2022-10-17T05:26:21.345Z,21.02
2022-10-17T05:28:48.554Z,17.13
2022-10-17T05:31:15.989Z,14.25
2022-10-17T05:33:43.156Z,11.63
2022-10-17T05:36:10.556Z,19.30
2022-10-17T05:38:37.643Z,16.38
2022-10-17T05:41:05.949Z,12.57
2022-10-17T05:43:34.698Z,9.18
2022-10-17T05:46:06.850Z,18.17
2022-10-17T05:48:34.740Z,15.65
2022-10-17T05:51:04.432Z,19.67
2022-10-17T05:53:33.037Z,11.18
2022-10-17T05:56:01.991Z,12.48
2022-10-17T05:58:49.364Z,14.40
2022-10-17T06:01:17.284Z,13.07
2022-10-17T06:03:44.396Z,13.32
2022-10-17T06:06:13.532Z,13.63
2022-10-17T06:08:40.685Z,16.13
2022-10-17T06:11:10.146Z,11.23
2022-10-17T06:13:38.327Z,17.48
2022-10-17T06:16:06.485Z,7.30
2022-10-17T06:18:34.308Z,9.90
2022-10-17T06:21:07.071Z,16.60
2022-10-17T06:23:34.617Z,16.30
2022-10-17T06:26:03.297Z,14.40
2022-10-17T06:28:30.954Z,11.50
2022-10-17T06:30:58.313Z,10.00
2022-10-17T06:33:25.670Z,10.50
2022-10-17T06:35:56.932Z,15.30
2022-10-17T06:38:24.467Z,9.73
2022-10-17T06:40:52.139Z,16.63
2022-10-17T06:43:19.202Z,22.15
2022-10-17T06:45:48.043Z,11.75
2022-10-17T06:48:15.435Z,15.48
2022-10-17T06:50:42.577Z,9.75
2022-10-17T06:53:09.680Z,6.15
2022-10-17T06:55:36.815Z,11.52
2022-10-17T06:58:04.096Z,9.32
2022-10-17T07:00:31.217Z,15.80
2022-10-17T07:02:58.314Z,15.07
2022-10-17T07:05:25.472Z,12.38
2022-10-17T07:07:52.609Z,13.32
2022-10-17T07:10:20.051Z,19.88
2022-10-17T07:12:47.122Z,11.35
2022-10-17T07:15:14.136Z,18.17
2022-10-17T07:17:41.240Z,12.23
2022-10-17T07:20:08.967Z,12.05
2022-10-17T07:22:36.206Z,15.75
2022-10-17T07:25:03.378Z,11.77
2022-10-17T07:27:30.765Z,14.75
2022-10-17T07:29:59.274Z,22.80
2022-10-17T07:32:26.384Z,19.00
2022-10-17T07:34:53.448Z,15.85
2022-10-17T07:37:20.511Z,17.30
2022-10-17T07:39:47.593Z,21.33
2022-10-17T07:42:14.962Z,12.77
2022-10-17T07:44:42.188Z,16.48
2022-10-17T07:47:09.470Z,19.27
2022-10-17T07:49:42.717Z,14.05
2022-10-17T07:52:14.197Z,12.60
2022-10-17T07:57:09.099Z,19.30
2022-10-17T07:59:38.003Z,14.27
2022-10-17T08:02:06.109Z,12.13
2022-10-17T08:04:34.426Z,18.08
2022-10-17T08:07:18.314Z,12.63
2022-10-17T08:09:48.625Z,10.20
2022-10-17T08:12:16.167Z,20.08
2022-10-17T08:14:43.836Z,12.98
2022-10-17T08:17:10.984Z,9.50
2022-10-17T08:19:41.392Z,12.90
2022-10-17T08:22:09.126Z,11.95
2022-10-17T08:24:36.277Z,12.73
2022-10-17T08:27:04.160Z,10.38
2022-10-17T08:29:33.029Z,16.15
2022-10-17T08:32:01.386Z,15.13
2022-10-17T08:34:29.891Z,15.82
2022-10-17T08:36:57.021Z,19.10
2022-10-17T08:39:24.110Z,12.13
2022-10-17T08:42:26.558Z,18.20
2022-10-17T08:45:36.964Z,13.70
2022-10-17T08:48:12.715Z,10.57
2022-10-17T08:50:52.022Z,17.25
2022-10-17T08:53:25.033Z,12.30
2022-10-17T08:55:54.153Z,12.63
2022-10-17T08:58:29.352Z,18.67
2022-10-17T09:00:56.359Z,12.48
2022-10-17T09:03:32.614Z,10.40
2022-10-17T09:06:30.157Z,16.20
2022-10-17T09:09:31.143Z,14.57
2022-10-17T09:12:16.546Z,16.10
2022-10-17T09:14:51.472Z,10.75
2022-10-17T09:17:24.073Z,18.08
2022-10-17T09:20:11.477Z,8.73
2022-10-17T09:22:47.989Z,18.50
2022-10-17T09:25:19.716Z,17.10
2022-10-17T09:28:09.967Z,11.68
2022-10-17T09:30:46.368Z,10.65
2022-10-17T09:33:28.263Z,13.48
2022-10-17T09:36:05.254Z,10.50
2022-10-17T09:38:45.871Z,19.42
2022-10-17T09:44:24.278Z,14.13
2022-10-17T09:47:10.199Z,10.93
2022-10-17T09:49:43.401Z,17.13
2022-10-17T09:52:25.497Z,18.90
2022-10-17T09:55:23.431Z,11.95
2022-10-17T09:58:02.368Z,21.17
2022-10-17T10:00:32.324Z,12.63
2022-10-17T10:03:17.059Z,7.90
2022-10-17T10:05:59.098Z,12.60
2022-10-17T10:08:30.585Z,12.50
2022-10-17T10:13:27.758Z,13.50
2022-10-17T10:16:12.484Z,14.88
2022-10-17T10:18:39.647Z,10.35
2022-10-17T10:21:20.428Z,17.83
2022-10-17T10:24:10.556Z,11.20
2022-10-17T10:26:47.785Z,8.65
2022-10-17T10:29:38.599Z,14.57
2022-10-17T10:32:23.909Z,15.38
2022-10-17T10:34:56.763Z,11.45
2022-10-17T10:37:31.054Z,14.05
2022-10-17T10:40:02.093Z,14.15
2022-10-17T10:42:33.117Z,10.18
2022-10-17T10:45:47.084Z,17.25
2022-10-17T10:48:23.970Z,12.88
2022-10-17T10:51:10.358Z,10.27
2022-10-17T10:54:03.518Z,8.57
2022-10-17T10:56:53.559Z,10.60
2022-10-17T10:59:39.696Z,7.38
2022-10-17T11:02:29.630Z,11.07
2022-10-17T11:05:18.384Z,9.73
2022-10-17T11:08:00.502Z,11.57
2022-10-17T11:10:59.315Z,10.00
2022-10-17T11:13:32.502Z,12.85
2022-10-17T11:16:25.251Z,13.85
2022-10-17T11:19:03.973Z,11.48
2022-10-17T11:24:30.243Z,11.95
2022-10-17T11:27:08.343Z,12.15
2022-10-17T11:29:39.278Z,10.75
2022-10-17T11:32:15.586Z,13.90
2022-10-17T11:34:47.826Z,9.93
2022-10-17T11:37:26.727Z,18.75
2022-10-17T11:40:00.447Z,8.50
2022-10-17T11:42:53.704Z,11.30
2022-10-17T11:45:24.183Z,9.05
2022-10-17T11:48:01.119Z,12.90
2022-10-17T11:53:34.582Z,10.52
2022-10-17T11:56:02.675Z,5.88
2022-10-17T11:59:07.206Z,10.50
2022-10-17T12:01:52.762Z,8.93
2022-10-17T12:04:49.773Z,17.13
2022-10-17T12:07:46.345Z,9.50
2022-10-17T12:10:22.216Z,11.38
2022-10-17T12:12:49.906Z,7.68
2022-10-17T12:15:26.392Z,9.77
2022-10-17T12:17:58.465Z,8.48
2022-10-17T12:20:37.399Z,9.80
2022-10-17T12:23:13.778Z,9.50
2022-10-17T12:26:01.510Z,13.80
2022-10-17T12:28:42.698Z,11.65
2022-10-17T12:31:29.598Z,8.23
2022-10-17T12:34:04.741Z,14.02
2022-10-17T12:36:31.917Z,13.68
2022-10-17T12:39:01.762Z,8.85
2022-10-17T12:41:40.966Z,11.77
2022-10-17T12:44:34.245Z,10.50
2022-10-17T12:47:10.891Z,6.93
2022-10-17T12:49:41.303Z,10.60
2022-10-17T12:52:26.314Z,12.82
2022-10-17T12:55:12.962Z,9.93
2022-10-17T12:57:57.379Z,8.82
2022-10-17T13:03:45.854Z,12.10
2022-10-17T13:06:22.551Z,9.38
2022-10-17T13:08:57.719Z,9.30
2022-10-17T13:11:30.276Z,13.70
2022-10-17T13:14:00.937Z,12.43
2022-10-17T13:16:36.683Z,11.18
2022-10-17T13:19:20.409Z,9.63
2022-10-17T13:22:06.885Z,6.22
2022-10-17T13:24:36.191Z,8.73
2022-10-17T13:27:05.540Z,13.43
2022-10-17T13:29:33.377Z,8.40
2022-10-17T13:32:04.212Z,10.68
2022-10-17T13:34:33.211Z,11.30
2022-10-17T13:37:03.281Z,10.25
2022-10-17T13:42:27.852Z,11.32
2022-10-17T13:47:28.651Z,8.63
2022-10-17T13:49:57.016Z,8.02
2022-10-17T13:52:28.612Z,6.22
2022-10-17T13:55:06.532Z,10.48
2022-10-17T13:57:34.085Z,10.60
2022-10-17T14:00:18.578Z,10.93
2022-10-17T14:02:45.927Z,5.95
2022-10-17T14:05:20.825Z,12.90
2022-10-17T14:10:41.987Z,6.63
2022-10-17T14:13:21.784Z,12.25
2022-10-17T14:15:49.506Z,6.13
2022-10-17T14:18:28.353Z,8.93
2022-10-17T14:23:44.914Z,7.35
2022-10-17T14:26:20.320Z,10.18
2022-10-17T14:28:51.295Z,6.38
2022-10-17T14:31:25.752Z,7.35
2022-10-17T14:33:54.415Z,8.70
2022-10-17T14:36:31.239Z,5.78
2022-10-17T14:38:59.017Z,5.55
2022-10-17T14:41:44.487Z,11.55
2022-10-17T14:44:21.865Z,5.93
2022-10-17T14:46:54.892Z,8.88
2022-10-17T14:49:34.055Z,5.30
2022-10-17T14:52:18.652Z,5.88
2022-10-17T14:54:48.787Z,7.13
2022-10-17T14:57:19.433Z,5.05
2022-10-17T14:59:55.192Z,7.17
2022-10-17T15:02:24.247Z,7.85
2022-10-17T15:04:51.429Z,10.38
2022-10-17T15:07:19.714Z,6.60
2022-10-17T15:09:48.943Z,3.58
2022-10-17T15:12:19.290Z,9.25
2022-10-17T15:14:48.058Z,5.15
2022-10-17T15:17:21.040Z,22.42
2022-10-17T15:19:49.040Z,13.90
2022-10-17T15:22:16.517Z,6.97
2022-10-17T15:24:46.104Z,5.72
2022-10-17T15:27:19.476Z,8.15
2022-10-17T15:29:47.014Z,19.75
2022-10-17T15:32:14.247Z,7.63
2022-10-17T15:34:41.523Z,5.13
2022-10-17T15:37:25.406Z,4.72
2022-10-17T15:39:55.034Z,8.02
2022-10-17T15:42:31.804Z,8.45
2022-10-17T15:44:59.245Z,6.85
2022-10-17T15:47:31.465Z,5.80
2022-10-17T15:50:00.529Z,7.43
2022-10-17T15:52:28.170Z,7.88
2022-10-17T15:54:57.280Z,11.30
2022-10-17T15:57:29.899Z,6.65
2022-10-17T15:59:59.493Z,8.18
2022-10-17T16:02:27.346Z,9.13
2022-10-17T16:04:54.557Z,6.35
2022-10-17T16:07:21.984Z,6.97
2022-10-17T16:09:49.312Z,7.80
2022-10-17T16:12:25.230Z,7.22
2022-10-17T16:14:52.515Z,7.40
2022-10-17T16:17:19.787Z,7.80
2022-10-17T16:19:47.074Z,5.05
2022-10-17T16:22:25.011Z,8.88
2022-10-17T16:24:59.308Z,7.47
2022-10-17T16:27:29.512Z,6.88
2022-10-17T16:29:57.376Z,8.32
2022-10-17T16:32:25.883Z,15.93
2022-10-17T16:34:56.487Z,15.80
2022-10-17T16:37:25.570Z,9.10
2022-10-17T16:39:54.392Z,8.48
2022-10-17T16:42:23.252Z,12.95
2022-10-17T16:44:52.526Z,5.15
2022-10-17T16:47:20.895Z,8.02
2022-10-17T16:49:49.513Z,7.22
2022-10-17T16:52:17.330Z,7.03
2022-10-17T16:54:44.689Z,9.75
2022-10-17T16:57:11.840Z,8.70
2022-10-17T16:59:39.032Z,14.05
2022-10-17T17:02:06.527Z,13.20
2022-10-17T17:04:33.669Z,7.95
2022-10-17T17:07:00.805Z,9.82
2022-10-17T17:09:28.265Z,12.63
2022-10-17T17:11:55.418Z,14.68
2022-10-17T17:14:22.488Z,10.93
2022-10-17T17:16:49.585Z,15.77
2022-10-17T17:19:20.558Z,8.00
2022-10-17T17:21:51.325Z,14.00
2022-10-17T17:24:21.261Z,13.38
2022-10-17T17:26:56.265Z,13.50
2022-10-17T17:29:24.687Z,18.25
2022-10-17T17:31:52.262Z,19.63
2022-10-17T17:34:19.517Z,18.42
2022-10-17T17:36:46.567Z,20.95
2022-10-17T17:39:15.298Z,19.92
2022-10-17T17:41:43.355Z,21.95
2022-10-17T17:44:15.742Z,20.90
2022-10-17T17:46:44.289Z,20.50
2022-10-17T17:49:11.942Z,24.45
2022-10-17T17:51:41.599Z,25.02
2022-10-17T17:54:11.737Z,20.38
2022-10-17T17:56:39.214Z,25.63
2022-10-17T17:59:06.827Z,28.05
2022-10-17T18:01:39.300Z,21.67
2022-10-17T18:04:08.974Z,25.27
2022-10-17T18:06:37.749Z,24.30
2022-10-17T18:09:06.035Z,25.67
2022-10-17T18:11:36.886Z,24.17
2022-10-17T18:14:10.775Z,31.40
2022-10-17T18:16:38.210Z,31.05
2022-10-17T18:19:07.541Z,34.50
2022-10-17T18:21:35.588Z,27.63
2022-10-17T18:24:05.270Z,26.85
2022-10-17T18:26:33.103Z,31.63
2022-10-17T18:29:00.232Z,27.88
2022-10-17T18:31:36.279Z,36.33
2022-10-17T18:34:04.841Z,30.40
2022-10-17T18:36:34.637Z,27.20
2022-10-17T18:39:02.965Z,26.33
2022-10-17T18:41:30.545Z,29.17
2022-10-17T18:43:58.287Z,25.23
2022-10-17T18:46:31.226Z,31.40
2022-10-17T18:48:59.080Z,29.05
2022-10-17T18:51:30.148Z,28.92
2022-10-17T18:54:03.516Z,31.10
2022-10-17T18:56:35.404Z,27.05
2022-10-17T18:59:02.581Z,31.65
2022-10-17T19:01:30.103Z,23.88
2022-10-17T19:04:01.075Z,24.15
2022-10-17T19:06:32.229Z,26.80
2022-10-17T19:09:04.447Z,20.45
2022-10-17T19:11:36.027Z,24.42
2022-10-17T19:14:05.362Z,26.45
2022-10-17T19:16:37.365Z,24.77
2022-10-17T19:19:12.306Z,29.38
2022-10-17T19:21:40.476Z,25.50
2022-10-17T19:24:14.089Z,22.35
2022-10-17T19:26:42.673Z,26.80
2022-10-17T19:29:13.156Z,19.88
2022-10-17T19:31:44.961Z,14.23
2022-10-17T19:34:13.848Z,18.88
2022-10-17T19:36:41.774Z,17.88
2022-10-17T19:39:18.846Z,22.55
2022-10-17T19:41:49.692Z,30.08
2022-10-17T19:44:20.519Z,21.65
2022-10-17T19:46:52.230Z,29.92
2022-10-17T19:49:19.679Z,16.20
2022-10-17T19:51:47.559Z,17.02
2022-10-17T19:54:18.349Z,16.25
2022-10-17T19:56:45.801Z,22.98
2022-10-17T19:59:16.504Z,18.83
2022-10-17T20:01:44.984Z,14.55
2022-10-17T20:04:13.021Z,19.38
2022-10-17T20:06:41.376Z,19.63
2022-10-17T20:09:12.379Z,14.38
2022-10-17T20:11:42.980Z,8.98
2022-10-17T20:14:10.130Z,16.63
2022-10-17T20:16:37.667Z,16.40
2022-10-17T20:19:08.977Z,13.82
2022-10-17T20:21:37.520Z,16.83
2022-10-17T20:24:07.208Z,16.88
2022-10-17T20:26:39.416Z,14.43
2022-10-17T20:29:11.714Z,17.85
2022-10-17T20:31:48.377Z,20.95
2022-10-17T20:34:17.213Z,12.60
2022-10-17T20:36:44.633Z,23.00
2022-10-17T20:39:17.223Z,13.88
2022-10-17T20:41:45.421Z,20.63
2022-10-17T20:44:13.602Z,17.73
2022-10-17T20:46:48.732Z,25.50
2022-10-17T20:49:24.865Z,15.85
2022-10-17T20:51:52.083Z,14.98
2022-10-17T20:54:19.165Z,16.27
2022-10-17T20:56:46.221Z,18.55
2022-10-17T20:59:16.632Z,19.95
2022-10-17T21:01:45.194Z,18.17
2022-10-17T21:04:45.396Z,18.45
2022-10-17T21:07:00.295Z,18.20
2022-10-17T21:09:27.404Z,13.65
2022-10-17T21:11:56.061Z,16.27
2022-10-17T21:14:24.798Z,24.85
2022-10-17T21:16:52.566Z,15.23
2022-10-17T21:19:22.259Z,24.73
2022-10-17T21:21:49.656Z,23.42
2022-10-17T21:24:19.343Z,24.42
2022-10-17T21:26:48.212Z,15.52
2022-10-17T21:29:16.120Z,20.77
2022-10-17T21:31:45.211Z,26.90
2022-10-17T21:34:18.961Z,23.40
2022-10-17T21:36:46.529Z,17.85
2022-10-17T21:39:15.514Z,22.63
2022-10-17T21:41:44.014Z,22.42
2022-10-17T21:44:16.450Z,20.42
2022-10-17T21:46:47.480Z,16.85
2022-10-17T21:49:19.009Z,14.48
2022-10-17T21:54:16.216Z,15.27
2022-10-17T21:56:43.478Z,20.92
2022-10-17T21:59:11.095Z,17.02
2022-10-17T22:01:41.125Z,16.63
2022-10-17T22:04:12.568Z,12.15
2022-10-17T22:06:44.804Z,21.20
2022-10-17T22:09:24.382Z,13.98
2022-10-17T22:11:54.645Z,15.25
2022-10-17T22:14:23.283Z,12.85
2022-10-17T22:16:51.503Z,17.77
2022-10-17T22:19:22.679Z,20.50
2022-10-17T22:21:53.995Z,17.92
2022-10-17T22:24:22.586Z,19.17
2022-10-17T22:26:50.202Z,18.30
2022-10-17T22:29:18.041Z,21.25
2022-10-17T22:31:49.503Z,18.50
2022-10-17T22:36:44.785Z,15.88
2022-10-17T22:39:12.087Z,19.10
2022-10-17T22:41:39.526Z,20.30
2022-10-17T22:44:07.335Z,18.67
2022-10-17T22:46:34.452Z,21.98
2022-10-17T22:49:01.895Z,19.40
2022-10-17T22:51:29.059Z,26.52
2022-10-17T22:53:56.271Z,27.13
2022-10-17T22:56:23.814Z,10.82
2022-10-17T22:58:51.366Z,16.27
2022-10-17T23:01:25.594Z,14.80
2022-10-17T23:03:53.436Z,19.20
2022-10-17T23:06:22.017Z,15.25
2022-10-17T23:08:49.814Z,13.05
2022-10-17T23:11:17.294Z,15.57
2022-10-17T23:13:44.383Z,11.73
2022-10-17T23:16:11.648Z,10.30
2022-10-17T23:18:39.373Z,14.95
2022-10-17T23:21:07.000Z,10.80
2022-10-17T23:23:34.237Z,19.00
2022-10-17T23:26:10.396Z,14.55
2022-10-17T23:28:40.586Z,16.45
2022-10-17T23:31:19.310Z,19.02
2022-10-17T23:33:47.654Z,21.40
2022-10-17T23:36:17.424Z,16.63
2022-10-17T23:38:45.739Z,19.67
2022-10-17T23:41:13.465Z,18.77
2022-10-17T23:43:41.033Z,12.63
2022-10-17T23:46:08.911Z,17.55
2022-10-17T23:48:36.387Z,16.13
2022-10-17T23:51:04.609Z,13.20
2022-10-17T23:53:31.963Z,17.15
2022-10-17T23:55:59.229Z,22.48
2022-10-17T23:58:26.364Z,20.98
